Time;durP1;ratioP1;P1;durP2;ratioP2;P2;SDS_P1;SDS_P2;PMS_P1;PMS_P2;Temp;Humidity;BMP_temperature;BMP_pressure;BME280_temperature;BME280_humidity;BME280_pressure;Samples;Min_cycle;Max_cycle;Signal;HPM_P1;HPM_P2
2023/06/20 00:01:31;;;;;;;20.58;12.48;;;;;;;-143.21;81.37;71923.47;5107737;28;20227;-77
2023/06/20 00:03:58;;;;;;;20.67;12.75;;;;;;;-143.21;81.55;71917.50;5107962;28;20654;-76
2023/06/20 00:06:24;;;;;;;18.20;12.65;;;;;;;-143.21;81.27;71911.56;5107565;28;20204;-76
2023/06/20 00:08:51;;;;;;;18.10;11.45;;;;;;;-143.21;80.77;71919.50;5107715;28;20196;-76
2023/06/20 00:11:18;;;;;;;17.30;11.18;;;;;;;-143.21;80.35;71925.44;5107818;28;20608;-76
2023/06/20 00:13:45;;;;;;;20.25;11.45;;;;;;;-143.21;80.57;71931.38;5108162;28;20207;-76
2023/06/20 00:16:13;;;;;;;14.88;10.95;;;;;;;-143.21;80.34;71927.44;5108119;28;20192;-76
2023/06/20 00:18:40;;;;;;;19.38;11.95;;;;;;;-143.21;80.25;71923.47;5107264;28;20579;-77
2023/06/20 00:21:07;;;;;;;17.92;11.95;;;;;;;-143.21;80.16;71925.44;5110792;28;20232;-77
2023/06/20 00:23:33;;;;;;;18.60;11.02;;;;;;;-143.21;79.84;71935.34;5109300;28;20196;-77
2023/06/20 00:26:00;;;;;;;18.20;11.70;;;;;;;-143.21;79.79;71943.28;5112141;28;20230;-77
2023/06/20 00:28:27;;;;;;;18.83;11.30;;;;;;;-143.21;80.24;71949.25;5111401;28;20223;-77
2023/06/20 00:30:54;;;;;;;12.73;10.27;;;;;;;-143.21;80.11;71947.25;5112545;28;20204;-80
2023/06/20 00:33:22;;;;;;;15.98;10.00;;;;;;;-143.21;80.06;71951.22;5112630;28;20196;-81
2023/06/20 00:35:49;;;;;;;15.50;10.68;;;;;;;-143.21;80.17;71963.13;5112031;28;20249;-80
2023/06/20 00:38:15;;;;;;;14.67;9.60;;;;;;;-143.21;80.63;71965.09;5110872;28;20214;-81
2023/06/20 00:40:42;;;;;;;12.77;9.90;;;;;;;-143.21;80.81;71961.13;5112957;28;20200;-80
2023/06/20 00:43:09;;;;;;;15.75;10.15;;;;;;;-143.21;81.07;71971.06;5112567;28;20220;-80
2023/06/20 00:45:36;;;;;;;15.02;10.50;;;;;;;-143.21;81.22;71971.06;5113043;28;20196;-81
2023/06/20 00:48:06;;;;;;;12.33;9.60;;;;;;;-143.21;80.64;71973.03;5113130;28;20196;-81
2023/06/20 00:50:38;;;;;;;17.25;10.63;;;;;;;-143.21;80.95;71973.03;5109118;28;20200;-81
2023/06/20 00:53:07;;;;;;;17.00;10.27;;;;;;;-143.21;81.37;71969.06;5108804;28;20210;-81
2023/06/20 00:55:35;;;;;;;14.00;10.15;;;;;;;-143.21;81.39;71965.09;5108009;28;20626;-81
2023/06/20 00:58:03;;;;;;;18.97;10.80;;;;;;;-143.21;81.50;71967.09;5108915;28;20204;-80
2023/06/20 01:00:32;;;;;;;12.93;10.43;;;;;;;-143.21;81.21;71963.13;5111486;28;20200;-80
2023/06/20 01:03:02;;;;;;;22.58;10.30;;;;;;;-143.21;81.17;71955.19;5112040;28;20287;-80
2023/06/20 01:05:30;;;;;;;17.07;10.90;;;;;;;-143.21;81.47;71969.06;5112617;28;20275;-81
2023/06/20 01:08:13;;;;;;;14.80;10.03;;;;;;;-143.21;82.05;71980.97;5111795;28;20215;-80
2023/06/20 01:10:52;;;;;;;15.70;10.23;;;;;;;-143.21;82.13;71982.94;5109605;28;20642;-80
2023/06/20 01:13:26;;;;;;;13.00;9.83;;;;;;;-143.21;81.84;71982.94;5112252;28;20336;-80
2023/06/20 01:16:01;;;;;;;14.87;11.10;;;;;;;-143.21;81.98;71982.94;5111958;28;20299;-81
2023/06/20 01:18:43;;;;;;;18.57;11.00;;;;;;;-143.21;82.10;71988.91;5111957;28;20207;-80
2023/06/20 01:21:14;;;;;;;14.00;10.70;;;;;;;-143.21;82.28;71992.88;5108708;28;20637;-81
2023/06/20 01:23:50;;;;;;;15.57;10.63;;;;;;;-143.21;82.69;72000.78;5112105;28;20200;-80
2023/06/20 01:26:24;;;;;;;17.27;10.40;;;;;;;-143.21;82.60;71994.84;5111401;28;20207;-81
2023/06/20 01:28:59;;;;;;;14.03;10.30;;;;;;;-143.21;82.55;71992.88;5110759;28;20204;-81
2023/06/20 01:31:32;;;;;;;15.43;10.40;;;;;;;-143.21;82.95;72008.72;5110509;28;20212;-81
2023/06/20 01:34:03;;;;;;;15.70;10.57;;;;;;;-143.21;83.21;72014.69;5111614;28;20207;-81
2023/06/20 01:36:34;;;;;;;15.73;10.67;;;;;;;-143.21;83.19;72018.63;5111527;28;20203;-81
2023/06/20 01:39:06;;;;;;;14.63;10.30;;;;;;;-143.21;83.17;72018.63;5110972;28;20196;-81
2023/06/20 01:41:38;;;;;;;17.10;10.10;;;;;;;-143.21;83.17;72022.59;5111706;28;20196;-81
2023/06/20 01:44:07;;;;;;;13.93;10.40;;;;;;;-143.21;83.43;72030.53;5108168;28;20203;-81
2023/06/20 01:46:34;;;;;;;15.70;10.53;;;;;;;-143.21;83.21;72034.50;5108387;28;20200;-81
2023/06/20 01:49:02;;;;;;;20.17;10.00;;;;;;;-143.21;83.04;72032.53;5108794;28;20211;-81
2023/06/20 01:51:32;;;;;;;15.17;10.27;;;;;;;-143.21;83.38;72042.44;5112203;28;20211;-81
2023/06/20 01:54:15;;;;;;;14.07;10.17;;;;;;;-143.21;83.36;72050.38;5111396;28;20234;-81
2023/06/20 01:56:45;;;;;;;21.37;10.43;;;;;;;-143.21;83.53;72056.31;5108476;28;20243;-81
2023/06/20 01:59:13;;;;;;;18.30;10.27;;;;;;;-143.21;83.58;72054.34;5111224;28;20203;-81
2023/06/20 02:01:42;;;;;;;13.33;9.50;;;;;;;-143.21;83.88;72056.31;5111066;28;20207;-81
2023/06/20 02:04:09;;;;;;;12.97;9.40;;;;;;;-143.21;83.65;72064.25;5111491;28;20625;-81
2023/06/20 02:06:38;;;;;;;13.33;9.70;;;;;;;-143.21;83.35;72070.19;5110651;28;20203;-82
2023/06/20 02:09:07;;;;;;;16.53;9.90;;;;;;;-143.21;83.36;72068.22;5111583;28;20212;-81
2023/06/20 02:11:35;;;;;;;14.10;9.47;;;;;;;-143.21;83.34;72070.19;5107721;28;20287;-81
2023/06/20 02:14:03;;;;;;;13.17;9.30;;;;;;;-143.21;83.60;72078.13;5106612;28;20279;-81
2023/06/20 02:16:33;;;;;;;15.67;10.30;;;;;;;-143.21;82.99;72068.22;5109504;28;20215;-81
2023/06/20 02:19:00;;;;;;;14.77;9.93;;;;;;;-143.21;83.07;72078.13;5110986;28;20207;-81
2023/06/20 02:21:32;;;;;;;19.43;10.17;;;;;;;-143.21;83.17;72082.09;5110237;28;20223;-80
2023/06/20 02:24:01;;;;;;;14.40;9.87;;;;;;;-143.21;83.00;72078.13;5110886;28;20200;-80
2023/06/20 02:26:32;;;;;;;14.93;10.00;;;;;;;-143.21;83.31;72086.06;5110639;28;20709;-80
2023/06/20 02:29:00;;;;;;;12.57;9.70;;;;;;;-143.21;83.90;72092.00;5111214;28;20273;-80
2023/06/20 02:31:31;;;;;;;13.93;10.27;;;;;;;-143.21;84.14;72099.94;5110848;28;20220;-81
2023/06/20 02:33:59;;;;;;;14.57;9.70;;;;;;;-143.21;84.38;72097.97;5110856;28;20207;-80
2023/06/20 02:36:29;;;;;;;12.53;9.30;;;;;;;-143.21;84.53;72094.00;5110073;28;20216;-81
2023/06/20 02:38:57;;;;;;;17.80;9.97;;;;;;;-143.21;84.73;72099.94;5111288;28;20215;-80
2023/06/20 02:41:24;;;;;;;14.50;10.23;;;;;;;-143.21;85.14;72109.84;5111580;28;20203;-81
2023/06/20 02:43:52;;;;;;;20.93;10.87;;;;;;;-143.21;84.78;72105.91;5110650;28;20644;-80
2023/06/20 02:46:27;;;;;;;15.10;10.63;;;;;;;-143.21;85.09;72109.84;5111058;28;20203;-81
2023/06/20 02:49:04;;;;;;;22.07;10.53;;;;;;;-143.21;85.06;72113.81;5110506;28;20210;-80
2023/06/20 02:51:36;;;;;;;19.17;10.90;;;;;;;-143.21;85.09;72111.84;5110180;28;20196;-80
2023/06/20 02:54:11;;;;;;;20.50;11.13;;;;;;;-143.21;84.54;72107.88;5107386;28;20196;-80
2023/06/20 02:56:41;;;;;;;14.00;10.00;;;;;;;-143.21;85.02;72123.75;5107313;28;20206;-80
2023/06/20 02:59:12;;;;;;;19.27;10.63;;;;;;;-143.21;85.08;72121.75;5109408;28;20673;-80
2023/06/20 03:01:41;;;;;;;17.70;10.97;;;;;;;-143.21;84.70;72123.75;5107506;28;20200;-80
2023/06/20 03:04:08;;;;;;;16.83;10.57;;;;;;;-143.21;84.79;72133.66;5110495;28;20211;-81
2023/06/20 03:06:37;;;;;;;17.00;10.00;;;;;;;-143.21;84.98;72137.63;5110700;28;20196;-80
2023/06/20 03:09:05;;;;;;;22.33;10.13;;;;;;;-143.21;84.99;72133.66;5107266;28;20200;-80
2023/06/20 03:11:32;;;;;;;17.00;10.77;;;;;;;-143.21;85.05;72137.63;5110331;28;20210;-81
2023/06/20 03:14:00;;;;;;;15.40;10.77;;;;;;;-143.21;84.90;72149.53;5110407;28;20200;-81
2023/06/20 03:16:28;;;;;;;17.40;11.73;;;;;;;-143.21;84.60;72145.56;5109631;28;20211;-81
2023/06/20 03:18:55;;;;;;;20.33;11.47;;;;;;;-143.21;83.94;72145.56;5109992;28;20219;-80
2023/06/20 03:21:22;;;;;;;20.70;10.90;;;;;;;-143.21;83.54;72147.53;5109363;28;20710;-80
2023/06/20 03:23:49;;;;;;;18.03;10.67;;;;;;;-143.21;83.19;72147.53;5109196;28;20219;-80
2023/06/20 03:26:16;;;;;;;13.73;10.37;;;;;;;-143.21;83.07;72149.53;5109403;28;20207;-81
2023/06/20 03:28:42;;;;;;;25.27;19.20;;;;;;;-143.21;82.87;72147.53;5109877;28;20207;-81
2023/06/20 03:31:09;;;;;;;40.47;31.33;;;;;;;-143.21;82.79;72147.53;5108037;28;20204;-81
2023/06/20 03:33:37;;;;;;;76.37;56.53;;;;;;;-143.21;82.73;72145.56;5107310;28;20192;-80
2023/06/20 03:36:05;;;;;;;52.43;36.63;;;;;;;-143.21;82.68;72151.50;5108490;28;20769;-81
2023/06/20 03:38:32;;;;;;;26.83;20.07;;;;;;;-143.21;82.62;72145.56;5109672;28;20200;-81
2023/06/20 03:41:00;;;;;;;21.27;16.27;;;;;;;-143.21;82.68;72141.59;5109970;28;20995;-80
2023/06/20 03:43:27;;;;;;;13.90;11.43;;;;;;;-143.21;81.95;72135.63;5109398;28;20720;-81
2023/06/20 03:45:53;;;;;;;16.50;10.77;;;;;;;-143.21;81.68;72135.63;5109394;28;20640;-79
2023/06/20 03:48:21;;;;;;;18.67;12.23;;;;;;;-143.21;82.10;72143.56;5108689;28;20199;-80
2023/06/20 03:50:49;;;;;;;16.17;12.70;;;;;;;-143.21;82.92;72149.53;5108514;28;20204;-80
2023/06/20 03:53:16;;;;;;;20.27;14.47;;;;;;;-143.21;82.96;72131.69;5108992;28;20192;-80
2023/06/20 03:55:43;;;;;;;22.17;15.27;;;;;;;-143.21;82.78;72115.81;5110192;28;20200;-81
2023/06/20 03:58:10;;;;;;;28.80;17.43;;;;;;;-143.21;82.47;72115.81;5113106;28;20681;-79
2023/06/20 04:00:38;;;;;;;24.53;16.53;;;;;;;-143.21;82.04;72121.75;5113247;28;20199;-80
2023/06/20 04:03:05;;;;;;;27.00;19.60;;;;;;;-143.21;82.42;72123.75;5113372;28;20227;-81
2023/06/20 04:05:31;;;;;;;29.33;19.80;;;;;;;-143.21;82.36;72117.78;5112954;28;20625;-79
2023/06/20 04:08:00;;;;;;;27.33;19.50;;;;;;;-143.21;82.36;72117.78;5113211;28;20208;-81
2023/06/20 04:10:28;;;;;;;29.57;15.23;;;;;;;-143.21;82.15;72105.91;5112581;28;20269;-80
2023/06/20 04:12:54;;;;;;;22.77;13.60;;;;;;;-143.21;81.85;72097.97;5113159;28;20287;-80
2023/06/20 04:15:21;;;;;;;21.40;12.43;;;;;;;-143.21;82.25;72103.91;5112353;28;20203;-79
2023/06/20 04:17:48;;;;;;;14.37;9.97;;;;;;;-143.21;81.99;72099.94;5112234;28;20208;-81
2023/06/20 04:20:15;;;;;;;18.50;10.33;;;;;;;-143.21;81.22;72097.97;5111965;28;20235;-80
2023/06/20 04:22:44;;;;;;;16.73;10.03;;;;;;;-143.21;81.34;72095.97;5112159;28;20228;-80
2023/06/20 04:25:14;;;;;;;13.70;9.83;;;;;;;-143.21;81.68;72101.94;5112253;28;20204;-80
2023/06/20 04:27:55;;;;;;;20.07;10.13;;;;;;;-143.21;81.20;72103.91;5112937;28;20697;-80
2023/06/20 04:30:22;;;;;;;15.73;10.17;;;;;;;-143.21;80.92;72101.94;5112963;28;20222;-80
2023/06/20 04:32:53;;;;;;;16.37;9.83;;;;;;;-143.21;80.97;72101.94;5113048;28;20203;-80
2023/06/20 04:35:20;;;;;;;16.23;10.37;;;;;;;-143.21;81.18;72095.97;5111076;28;20203;-81
2023/06/20 04:37:48;;;;;;;19.93;10.93;;;;;;;-143.21;81.77;72088.03;5112236;28;20328;-81
2023/06/20 04:40:16;;;;;;;17.23;9.97;;;;;;;-143.21;81.59;72092.00;5111571;28;20679;-81
2023/06/20 04:42:45;;;;;;;23.03;10.53;;;;;;;-143.21;81.70;72095.97;5111553;28;20220;-80
2023/06/20 04:45:12;;;;;;;15.43;11.33;;;;;;;-143.21;81.63;72095.97;5110625;28;20291;-80
2023/06/20 04:47:41;;;;;;;21.73;11.37;;;;;;;-143.21;81.72;72090.03;5110991;28;20204;-81
2023/06/20 04:50:09;;;;;;;17.17;11.07;;;;;;;-143.21;81.73;72088.03;5110295;28;20646;-81
2023/06/20 04:52:36;;;;;;;17.93;11.20;;;;;;;-143.21;81.29;72086.06;5107130;28;20220;-80
2023/06/20 04:55:03;;;;;;;20.13;11.27;;;;;;;-143.21;80.96;72076.16;5112047;28;20204;-80
2023/06/20 04:57:32;;;;;;;16.70;11.37;;;;;;;-143.21;81.26;72078.13;5113745;28;20210;-80
2023/06/20 04:59:59;;;;;;;20.60;10.97;;;;;;;-143.21;81.53;72082.09;5114544;28;20667;-80
2023/06/20 05:02:27;;;;;;;13.50;10.57;;;;;;;-143.21;81.37;72078.13;5114640;28;20207;-80
2023/06/20 05:04:54;;;;;;;21.07;11.47;;;;;;;-143.21;81.10;72074.16;5114738;28;20294;-80
2023/06/20 05:07:21;;;;;;;16.60;10.87;;;;;;;-143.21;80.99;72076.16;5113936;28;20223;-80
2023/06/20 05:09:49;;;;;;;24.30;11.37;;;;;;;-143.21;81.02;72072.19;5114431;28;20272;-81
2023/06/20 05:12:16;;;;;;;15.97;11.40;;;;;;;-143.21;80.94;72068.22;5113638;28;20238;-80
2023/06/20 05:14:44;;;;;;;18.00;10.80;;;;;;;-143.21;80.94;72056.31;5114335;28;20204;-79
2023/06/20 05:17:11;;;;;;;19.17;10.93;;;;;;;-143.21;80.73;72052.34;5113579;28;20916;-81
2023/06/20 05:19:38;;;;;;;22.03;11.63;;;;;;;-143.21;79.97;72050.38;5114922;28;20228;-80
2023/06/20 05:22:05;;;;;;;20.90;11.43;;;;;;;-143.21;79.27;72038.47;5113324;28;20196;-80
2023/06/20 05:24:31;;;;;;;17.83;11.50;;;;;;;-143.21;78.44;72036.50;5109738;28;20216;-80
2023/06/20 05:26:58;;;;;;;19.20;11.77;;;;;;;-143.21;78.60;72036.50;5109778;28;20211;-80
2023/06/20 05:29:25;;;;;;;21.85;13.25;;;;;;;-143.21;78.93;72034.50;5113560;28;20207;-80
2023/06/20 05:31:53;;;;;;;19.00;12.93;;;;;;;-143.21;78.60;72022.59;5113295;28;20624;-79
2023/06/20 05:34:21;;;;;;;25.40;13.37;;;;;;;-143.21;78.47;72012.69;5113269;28;20244;-79
2023/06/20 05:36:48;;;;;;;24.73;13.10;;;;;;;-143.21;78.29;72006.75;5112995;28;20678;-79
2023/06/20 05:39:15;;;;;;;22.58;13.15;;;;;;;-143.21;77.97;71994.84;5113716;28;20227;-80
2023/06/20 05:41:42;;;;;;;19.73;12.45;;;;;;;-143.21;78.19;71994.84;5113531;28;20650;-80
2023/06/20 05:44:09;;;;;;;19.55;13.85;;;;;;;-143.21;78.39;71990.88;5113468;28;20319;-81
2023/06/20 05:46:36;;;;;;;19.88;12.77;;;;;;;-143.21;78.28;71980.97;5113445;28;20208;-80
2023/06/20 05:49:04;;;;;;;28.48;13.57;;;;;;;-143.21;78.37;71969.06;5113375;28;20192;-80
2023/06/20 05:51:31;;;;;;;20.42;13.45;;;;;;;-143.21;78.16;71951.22;5112935;28;20200;-80
2023/06/20 05:53:58;;;;;;;20.38;13.80;;;;;;;-143.21;78.15;71949.25;5112851;28;20204;-81
2023/06/20 05:56:25;;;;;;;22.50;12.90;;;;;;;-143.21;78.08;71943.28;5111663;28;20329;-80
2023/06/20 05:58:52;;;;;;;19.20;12.80;;;;;;;-143.21;78.36;71941.31;5112514;28;20203;-80
2023/06/20 06:01:19;;;;;;;25.30;13.63;;;;;;;-143.21;77.86;71931.38;5112121;28;20204;-80
2023/06/20 06:03:47;;;;;;;26.02;13.93;;;;;;;-143.21;77.57;71925.44;5111318;28;20232;-79
2023/06/20 06:06:16;;;;;;;21.67;13.27;;;;;;;-143.21;78.24;71921.47;5110594;28;20207;-79
2023/06/20 06:08:42;;;;;;;22.92;13.43;;;;;;;-143.21;77.92;71907.59;5110445;28;20287;-79
2023/06/20 06:11:09;;;;;;;22.98;12.77;;;;;;;-143.21;78.09;71911.56;5110213;28;20211;-79
2023/06/20 06:13:38;;;;;;;23.08;12.55;;;;;;;-143.21;77.68;71905.63;5111604;28;20210;-79
2023/06/20 06:16:05;;;;;;;20.08;12.80;;;;;;;-143.21;77.54;71899.66;5110851;28;20674;-80
2023/06/20 06:18:32;;;;;;;20.58;12.38;;;;;;;-143.21;78.05;71889.75;5110905;28;20699;-80
2023/06/20 06:20:59;;;;;;;19.85;12.45;;;;;;;-143.21;77.17;71883.81;5110906;28;20494;-80
2023/06/20 06:23:27;;;;;;;18.13;12.13;;;;;;;-143.21;76.67;71873.88;5110097;28;20227;-81
2023/06/20 06:25:53;;;;;;;18.80;11.77;;;;;;;-143.21;76.51;71863.97;5111480;28;20215;-81
2023/06/20 06:28:21;;;;;;;19.50;11.15;;;;;;;-143.21;76.32;71860.00;5110804;28;20225;-81
2023/06/20 06:30:48;;;;;;;21.92;11.07;;;;;;;-143.21;75.87;71854.06;5110398;28;20220;-81
2023/06/20 06:33:15;;;;;;;20.50;11.48;;;;;;;-143.21;75.62;71836.22;5110296;28;20681;-82
2023/06/20 06:35:42;;;;;;;18.40;12.27;;;;;;;-143.21;74.98;71826.28;5110083;28;20642;-80
2023/06/20 06:38:09;;;;;;;23.77;11.60;;;;;;;-143.21;74.96;71814.41;5110384;28;20207;-82
2023/06/20 06:40:37;;;;;;;19.48;12.65;;;;;;;-143.21;73.62;71804.47;5110626;28;20210;-82
2023/06/20 06:43:04;;;;;;;25.15;12.50;;;;;;;-143.21;73.16;71796.56;5110462;28;20227;-81
2023/06/20 06:45:32;;;;;;;17.23;11.57;;;;;;;-143.21;73.33;71796.56;5110579;28;20620;-80
2023/06/20 06:47:59;;;;;;;24.77;11.70;;;;;;;-143.21;73.44;71790.59;5110611;28;20723;-80
2023/06/20 06:50:26;;;;;;;26.98;12.38;;;;;;;-143.21;73.57;71780.69;5110282;28;20208;-80
2023/06/20 06:52:52;;;;;;;18.75;11.82;;;;;;;-143.21;73.18;71774.75;5110046;28;20219;-83
2023/06/20 06:55:19;;;;;;;23.38;12.05;;;;;;;-143.21;72.60;71760.88;5110724;28;20207;-81
2023/06/20 06:57:47;;;;;;;15.70;10.73;;;;;;;-143.21;72.43;71746.97;5110703;28;20253;-82
2023/06/20 07:00:15;;;;;;;25.58;12.23;;;;;;;-143.21;72.63;71731.13;5109368;28;20199;-82
2023/06/20 07:02:43;;;;;;;16.38;12.00;;;;;;;-143.21;71.67;71707.31;5111288;28;20198;-83
2023/06/20 07:05:10;;;;;;;18.48;11.77;;;;;;;-143.21;71.32;71687.50;5112006;28;20311;-82
2023/06/20 07:07:37;;;;;;;28.65;12.95;;;;;;;-143.21;70.90;71679.56;5111650;28;20196;-80
2023/06/20 07:10:04;;;;;;;24.88;12.68;;;;;;;-143.21;70.62;71675.59;5112223;28;20199;-81
2023/06/20 07:12:31;;;;;;;24.98;12.55;;;;;;;-143.21;70.68;71661.72;5112477;28;20188;-82
2023/06/20 07:15:00;;;;;;;19.60;12.50;;;;;;;-143.21;70.81;71653.78;5112032;28;20188;-81
2023/06/20 07:17:27;;;;;;;20.65;12.07;;;;;;;-143.21;71.16;71641.91;5111954;28;20205;-82
2023/06/20 07:19:56;;;;;;;22.60;11.45;;;;;;;-143.21;70.26;71628.00;5110862;28;20613;-77
2023/06/20 07:22:23;;;;;;;13.43;9.00;;;;;;;-143.21;67.08;71622.06;5111136;28;20283;-77
2023/06/20 07:24:50;;;;;;;29.75;9.48;;;;;;;-143.21;64.85;71600.25;5110819;28;20228;-77
2023/06/20 07:27:17;;;;;;;16.98;9.63;;;;;;;-143.21;65.64;71600.25;5111039;28;20204;-77
2023/06/20 07:29:44;;;;;;;16.48;9.43;;;;;;;-143.21;65.64;71586.38;5110641;28;20280;-77
2023/06/20 07:32:14;;;;;;;19.33;9.27;;;;;;;-143.21;65.06;71564.56;5110634;28;20200;-76
2023/06/20 07:34:45;;;;;;;19.95;10.10;;;;;;;-143.21;64.04;71548.72;5111207;28;20176;-77
2023/06/20 07:37:12;;;;;;;14.63;9.50;;;;;;;-143.21;63.63;71538.78;5111061;28;20207;-77
2023/06/20 07:39:40;;;;;;;12.90;8.95;;;;;;;-143.21;63.17;71540.78;5110908;28;20223;-77
2023/06/20 07:42:07;;;;;;;15.18;9.00;;;;;;;-143.21;62.33;71534.81;5111193;28;20644;-76
2023/06/20 07:44:34;;;;;;;12.23;8.00;;;;;;;-143.21;61.85;71518.97;5109265;28;20593;-82
2023/06/20 07:47:01;;;;;;;10.82;7.90;;;;;;;-143.21;59.81;71493.19;5111901;28;20204;-82
2023/06/20 07:49:29;;;;;;;10.73;7.70;;;;;;;-143.21;59.60;71489.22;5111441;28;20210;-81
2023/06/20 07:51:57;;;;;;;8.85;7.38;;;;;;;-143.21;59.35;71487.25;5111564;28;20573;-82
2023/06/20 07:54:25;;;;;;;10.00;7.63;;;;;;;-143.21;59.17;71477.34;5111509;28;20290;-81
2023/06/20 07:56:57;;;;;;;9.43;7.68;;;;;;;-143.21;59.10;71457.50;5111616;28;20618;-81
2023/06/20 07:59:25;;;;;;;10.75;6.90;;;;;;;-143.21;58.00;71459.47;5110903;28;20200;-81
2023/06/20 08:01:52;;;;;;;8.73;6.90;;;;;;;-143.21;56.58;71453.53;5111975;28;20642;-82
2023/06/20 08:04:19;;;;;;;9.38;7.32;;;;;;;-143.21;54.90;71437.69;5112381;28;20219;-81
2023/06/20 08:06:47;;;;;;;9.55;6.55;;;;;;;-143.21;54.04;71419.84;5111334;28;20214;-82
2023/06/20 08:09:13;;;;;;;7.57;6.53;;;;;;;-143.21;55.90;71398.03;5111834;28;20192;-82
2023/06/20 08:11:40;;;;;;;7.55;6.45;;;;;;;-143.21;54.77;71384.16;5111049;28;20622;-77
2023/06/20 08:14:07;;;;;;;10.32;6.80;;;;;;;-143.21;53.24;71374.22;5110526;28;20196;-78
2023/06/20 08:16:35;;;;;;;10.55;6.90;;;;;;;-143.21;53.22;71370.28;5103553;28;20658;-77
2023/06/20 08:19:03;;;;;;;7.78;6.80;;;;;;;-143.21;51.91;71364.31;5110502;28;20196;-76
2023/06/20 08:21:29;;;;;;;8.07;6.30;;;;;;;-143.21;52.12;71356.38;5110105;28;20624;-77
2023/06/20 08:23:58;;;;;;;12.13;7.70;;;;;;;-143.21;52.42;71332.59;5103750;28;20695;-78
2023/06/20 08:26:24;;;;;;;7.80;7.00;;;;;;;-143.21;52.05;71336.56;5090515;28;20212;-78
2023/06/20 08:28:51;;;;;;;9.63;6.90;;;;;;;-143.21;52.54;71336.56;5090806;28;20200;-77
2023/06/20 08:31:18;;;;;;;8.00;6.93;;;;;;;-143.21;52.54;71324.66;5090372;28;20189;-77
2023/06/20 08:33:45;;;;;;;15.00;8.10;;;;;;;-143.21;53.28;71308.81;5090352;28;20201;-77
2023/06/20 08:36:11;;;;;;;12.35;7.65;;;;;;;-143.21;53.98;71292.94;5096481;28;20211;-77
2023/06/20 08:38:38;;;;;;;10.63;6.70;;;;;;;-143.21;56.42;71285.03;5097048;28;20200;-77
2023/06/20 08:41:10;;;;;;;9.45;7.68;;;;;;;-143.21;52.84;71273.13;5091924;28;20197;-77
2023/06/20 08:43:36;;;;;;;8.20;6.82;;;;;;;-143.21;54.48;71261.22;5109213;28;20224;-77
2023/06/20 08:46:04;;;;;;;10.15;7.15;;;;;;;-143.21;53.98;71257.25;5093972;28;20193;-77
2023/06/20 08:48:30;;;;;;;8.75;7.28;;;;;;;-143.21;54.88;71251.31;5097456;28;20207;-79
2023/06/20 08:50:57;;;;;;;8.15;7.30;;;;;;;-143.21;54.00;71247.34;5113972;28;20603;-78
2023/06/20 08:53:25;;;;;;;9.13;7.50;;;;;;;-143.21;52.87;71253.28;5113494;28;20215;-77
2023/06/20 08:55:54;;;;;;;9.57;7.32;;;;;;;-143.21;53.40;71257.25;5113625;28;20257;-78
2023/06/20 08:58:23;;;;;;;9.65;7.45;;;;;;;-143.21;54.23;71247.34;5114466;28;20214;-77
2023/06/20 09:00:50;;;;;;;8.80;7.90;;;;;;;-143.21;53.71;71239.41;5109360;28;20208;-78
2023/06/20 09:03:16;;;;;;;13.85;8.27;;;;;;;-143.21;54.62;71231.50;5113455;28;20689;-78
2023/06/20 09:05:45;;;;;;;10.23;7.75;;;;;;;-143.21;54.34;71215.63;5090613;28;20640;-78
2023/06/20 09:08:15;;;;;;;9.95;8.82;;;;;;;-143.21;54.38;71201.75;5113093;28;20623;-76
2023/06/20 09:10:42;;;;;;;11.13;7.93;;;;;;;-143.21;54.30;71189.84;5113385;28;20192;-77
2023/06/20 09:13:11;;;;;;;11.80;7.25;;;;;;;-143.21;54.58;71177.97;5113268;28;20589;-76
2023/06/20 09:15:40;;;;;;;14.93;8.32;;;;;;;-143.21;52.65;71177.97;5113244;28;20209;-78
2023/06/20 09:18:07;;;;;;;9.75;7.70;;;;;;;-143.21;52.64;71172.00;5113252;28;20200;-78
2023/06/20 09:20:35;;;;;;;9.20;7.45;;;;;;;-143.21;53.13;71174.00;5105256;28;20255;-78
2023/06/20 09:23:02;;;;;;;8.75;7.47;;;;;;;-143.21;53.45;71166.06;5113851;28;20849;-77
2023/06/20 09:25:30;;;;;;;9.90;7.13;;;;;;;-143.21;53.45;71150.22;5110827;28;20220;-78
2023/06/20 09:27:58;;;;;;;9.65;7.40;;;;;;;-143.21;51.60;71130.38;5096874;28;20293;-78
2023/06/20 09:30:30;;;;;;;8.57;7.72;;;;;;;-143.21;50.65;71128.41;5092471;28;20589;-77
2023/06/20 09:33:03;;;;;;;13.15;7.43;;;;;;;-143.21;50.64;71130.38;5092736;28;20196;-78
2023/06/20 09:35:31;;;;;;;11.80;7.55;;;;;;;-143.21;51.57;71128.41;5093729;28;20584;-78
2023/06/20 09:38:02;;;;;;;10.65;7.63;;;;;;;-143.21;52.40;71122.44;5111303;28;20203;-78
2023/06/20 09:40:29;;;;;;;9.57;7.15;;;;;;;-143.21;52.82;71116.50;5113079;28;20278;-78
2023/06/20 09:42:58;;;;;;;9.70;7.10;;;;;;;-143.21;52.46;71108.56;5112845;28;20192;-78
2023/06/20 09:45:25;;;;;;;9.05;6.90;;;;;;;-143.21;50.23;71094.69;5112456;28;20246;-77
2023/06/20 09:47:56;;;;;;;12.35;7.65;;;;;;;-143.21;50.73;71090.72;5099586;28;20215;-79
2023/06/20 09:50:24;;;;;;;8.10;6.70;;;;;;;-143.21;51.70;71072.88;5092846;28;20184;-78
2023/06/20 09:52:56;;;;;;;7.82;7.00;;;;;;;-143.21;52.57;71066.94;5091911;28;20212;-78
2023/06/20 09:55:25;;;;;;;9.85;7.90;;;;;;;-143.21;51.77;71051.09;5092119;28;20181;-77
2023/06/20 09:57:55;;;;;;;9.68;7.43;;;;;;;-143.21;51.20;71031.25;5091891;28;20208;-77
2023/06/20 10:00:26;;;;;;;9.75;7.72;;;;;;;-143.21;50.41;71023.34;5091604;28;20628;-78
2023/06/20 10:02:53;;;;;;;7.43;6.63;;;;;;;-143.21;50.90;71019.38;5092152;28;20279;-78
2023/06/20 10:05:21;;;;;;;11.50;7.32;;;;;;;-143.21;51.14;71005.50;5091706;28;20717;-77
2023/06/20 10:07:51;;;;;;;10.75;8.02;;;;;;;-143.21;49.71;70981.69;5091975;28;20197;-77
2023/06/20 10:10:18;;;;;;;10.52;7.15;;;;;;;-143.21;49.71;70975.75;5091949;28;20208;-77
2023/06/20 10:12:46;;;;;;;9.95;6.85;;;;;;;-143.21;50.57;70967.81;5103845;28;20212;-77
2023/06/20 10:15:15;;;;;;;10.18;6.85;;;;;;;-143.21;50.89;70951.97;5091972;28;20193;-77
2023/06/20 10:17:43;;;;;;;10.50;7.60;;;;;;;-143.21;49.36;70948.00;5092023;28;20717;-78
2023/06/20 10:20:25;;;;;;;7.63;6.32;;;;;;;-143.21;49.36;70940.06;5107448;28;20238;-78
2023/06/20 10:22:57;;;;;;;11.20;6.95;;;;;;;-143.21;48.31;70920.25;5092783;28;20207;-77
2023/06/20 10:25:25;;;;;;;11.93;7.22;;;;;;;-143.21;47.70;70922.22;5091674;28;20204;-78
2023/06/20 10:27:56;;;;;;;11.15;7.00;;;;;;;-143.21;48.24;70916.28;5092085;28;20254;-78
2023/06/20 10:30:58;;;;;;;11.48;7.10;;;;;;;-143.21;48.91;70896.47;5092322;28;20196;-78
2023/06/20 10:33:26;;;;;;;9.18;7.50;;;;;;;-143.21;45.66;70864.75;5081651;28;20212;-79
2023/06/20 10:35:56;;;;;;;9.63;6.68;;;;;;;-143.21;47.61;70844.91;5091913;28;20204;-78
2023/06/20 10:38:24;;;;;;;9.05;6.90;;;;;;;-143.21;45.39;70831.03;5086478;28;20233;-78
2023/06/20 10:41:06;;;;;;;8.18;6.82;;;;;;;-143.21;45.35;70829.06;5073798;28;20583;-78
2023/06/20 10:43:47;;;;;;;10.88;7.63;;;;;;;-143.21;45.14;70844.91;5111726;28;20218;-78
2023/06/20 10:46:14;;;;;;;8.68;7.28;;;;;;;-143.21;46.43;70848.88;5112102;28;20670;-78
2023/06/20 10:48:41;;;;;;;9.93;6.78;;;;;;;-143.21;47.39;70844.91;5102244;28;20774;-78
2023/06/20 10:51:09;;;;;;;14.30;6.90;;;;;;;-143.21;46.61;70850.88;5105211;28;20658;-78
2023/06/20 10:53:37;;;;;;;8.55;6.63;;;;;;;-143.21;47.64;70848.88;5098232;28;20200;-77
2023/06/20 10:56:04;;;;;;;9.85;6.90;;;;;;;-143.21;46.77;70864.75;5100868;28;20622;-76
2023/06/20 10:58:31;;;;;;;12.88;7.47;;;;;;;-143.21;47.28;70876.63;5091879;28;20215;-76
2023/06/20 11:00:58;;;;;;;10.30;7.15;;;;;;;-143.21;47.42;70888.53;5094141;28;20208;-76
2023/06/20 11:03:24;;;;;;;8.18;6.95;;;;;;;-143.21;48.62;70876.63;5098985;28;20223;-76
2023/06/20 11:05:54;;;;;;;8.18;6.78;;;;;;;-143.21;48.52;70876.63;5093889;28;20228;-75
2023/06/20 11:08:26;;;;;;;9.07;7.13;;;;;;;-143.21;47.34;70864.75;5091093;28;20197;-76
2023/06/20 11:10:54;;;;;;;9.27;7.30;;;;;;;-143.21;47.50;70837.00;5090614;28;20242;-76
2023/06/20 11:13:21;;;;;;;11.98;7.05;;;;;;;-143.21;46.87;70803.28;5090762;28;20208;-77